sensor_id;sensor_type;location;lat;lon;timestamp;pressure;altitude;pressure_sealevel;temperature
5571;BMP180;2808;51.240;6.794;2023-06-22T00:02:22;101359.00;;;23.20
5571;BMP180;2808;51.240;6.794;2023-06-22T00:04:51;101362.00;;;23.20
5571;BMP180;2808;51.240;6.794;2023-06-22T00:07:19;101365.00;;;23.20
5571;BMP180;2808;51.240;6.794;2023-06-22T00:09:46;101364.00;;;23.20
5571;BMP180;2808;51.240;6.794;2023-06-22T00:12:14;101367.00;;;23.10
5571;BMP180;2808;51.240;6.794;2023-06-22T00:14:41;101362.00;;;23.10
5571;BMP180;2808;51.240;6.794;2023-06-22T00:17:08;101366.00;;;23.10
5571;BMP180;2808;51.240;6.794;2023-06-22T00:19:36;101360.00;;;23.10
5571;BMP180;2808;51.240;6.794;2023-06-22T00:22:08;101363.00;;;23.00
5571;BMP180;2808;51.240;6.794;2023-06-22T00:24:35;101364.00;;;23.00
5571;BMP180;2808;51.240;6.794;2023-06-22T00:27:03;101361.00;;;23.00
5571;BMP180;2808;51.240;6.794;2023-06-22T00:29:34;101352.00;;;23.00
5571;BMP180;2808;51.240;6.794;2023-06-22T00:32:02;101355.00;;;22.90
5571;BMP180;2808;51.240;6.794;2023-06-22T00:34:29;101360.00;;;22.90
5571;BMP180;2808;51.240;6.794;2023-06-22T00:36:57;101359.00;;;22.90
5571;BMP180;2808;51.240;6.794;2023-06-22T00:39:27;101362.00;;;22.90
5571;BMP180;2808;51.240;6.794;2023-06-22T00:41:54;101352.00;;;22.80
5571;BMP180;2808;51.240;6.794;2023-06-22T00:44:22;101351.00;;;22.70
5571;BMP180;2808;51.240;6.794;2023-06-22T00:46:49;101359.00;;;22.70
5571;BMP180;2808;51.240;6.794;2023-06-22T00:49:17;101345.00;;;22.60
5571;BMP180;2808;51.240;6.794;2023-06-22T00:51:44;101356.00;;;22.60
5571;BMP180;2808;51.240;6.794;2023-06-22T00:54:14;101348.00;;;22.60
5571;BMP180;2808;51.240;6.794;2023-06-22T00:56:43;101356.00;;;22.60
5571;BMP180;2808;51.240;6.794;2023-06-22T00:59:12;101355.00;;;22.60
5571;BMP180;2808;51.240;6.794;2023-06-22T01:01:39;101356.00;;;22.60
5571;BMP180;2808;51.240;6.794;2023-06-22T01:04:07;101350.00;;;22.70
5571;BMP180;2808;51.240;6.794;2023-06-22T01:06:41;101348.00;;;22.70
5571;BMP180;2808;51.240;6.794;2023-06-22T01:09:15;101347.00;;;22.70
5571;BMP180;2808;51.240;6.794;2023-06-22T01:11:51;101352.00;;;22.70
5571;BMP180;2808;51.240;6.794;2023-06-22T01:14:23;101334.00;;;22.70
5571;BMP180;2808;51.240;6.794;2023-06-22T01:16:52;101340.00;;;22.70
5571;BMP180;2808;51.240;6.794;2023-06-22T01:19:37;101335.00;;;22.70
5571;BMP180;2808;51.240;6.794;2023-06-22T01:22:08;101337.00;;;22.60
5571;BMP180;2808;51.240;6.794;2023-06-22T01:24:49;101332.00;;;22.60
5571;BMP180;2808;51.240;6.794;2023-06-22T01:27:28;101339.00;;;22.60
5571;BMP180;2808;51.240;6.794;2023-06-22T01:30:00;101323.00;;;22.50
5571;BMP180;2808;51.240;6.794;2023-06-22T01:32:32;101330.00;;;22.50
5571;BMP180;2808;51.240;6.794;2023-06-22T01:35:02;101326.00;;;22.40
5571;BMP180;2808;51.240;6.794;2023-06-22T01:37:31;101318.00;;;22.40
5571;BMP180;2808;51.240;6.794;2023-06-22T01:40:01;101315.00;;;22.40
5571;BMP180;2808;51.240;6.794;2023-06-22T01:42:30;101312.00;;;22.40
5571;BMP180;2808;51.240;6.794;2023-06-22T01:45:00;101317.00;;;22.40
5571;BMP180;2808;51.240;6.794;2023-06-22T01:47:28;101318.00;;;22.40
5571;BMP180;2808;51.240;6.794;2023-06-22T01:49:57;101316.00;;;22.40
5571;BMP180;2808;51.240;6.794;2023-06-22T01:52:24;101315.00;;;22.40
5571;BMP180;2808;51.240;6.794;2023-06-22T01:54:51;101318.00;;;22.40
5571;BMP180;2808;51.240;6.794;2023-06-22T01:57:19;101320.00;;;22.40
5571;BMP180;2808;51.240;6.794;2023-06-22T01:59:52;101326.00;;;22.50
5571;BMP180;2808;51.240;6.794;2023-06-22T02:02:22;101322.00;;;22.40
5571;BMP180;2808;51.240;6.794;2023-06-22T02:04:57;101316.00;;;22.40
5571;BMP180;2808;51.240;6.794;2023-06-22T02:07:31;101315.00;;;22.40
5571;BMP180;2808;51.240;6.794;2023-06-22T02:10:00;101313.00;;;22.40
5571;BMP180;2808;51.240;6.794;2023-06-22T02:12:30;101311.00;;;22.30
5571;BMP180;2808;51.240;6.794;2023-06-22T02:14:58;101315.00;;;22.30
5571;BMP180;2808;51.240;6.794;2023-06-22T02:17:28;101314.00;;;22.30
5571;BMP180;2808;51.240;6.794;2023-06-22T02:19:59;101317.00;;;22.30
5571;BMP180;2808;51.240;6.794;2023-06-22T02:22:28;101317.00;;;22.30
5571;BMP180;2808;51.240;6.794;2023-06-22T02:24:56;101308.00;;;22.30
5571;BMP180;2808;51.240;6.794;2023-06-22T02:27:24;101315.00;;;22.30
5571;BMP180;2808;51.240;6.794;2023-06-22T02:29:52;101305.00;;;22.20
5571;BMP180;2808;51.240;6.794;2023-06-22T02:32:19;101305.00;;;22.20
5571;BMP180;2808;51.240;6.794;2023-06-22T02:34:48;101304.00;;;22.20
5571;BMP180;2808;51.240;6.794;2023-06-22T02:37:16;101299.00;;;22.20
5571;BMP180;2808;51.240;6.794;2023-06-22T02:39:43;101303.00;;;22.10
5571;BMP180;2808;51.240;6.794;2023-06-22T02:42:11;101299.00;;;22.10
5571;BMP180;2808;51.240;6.794;2023-06-22T02:44:38;101291.00;;;22.10
5571;BMP180;2808;51.240;6.794;2023-06-22T02:47:07;101289.00;;;22.10
5571;BMP180;2808;51.240;6.794;2023-06-22T02:49:35;101283.00;;;22.00
5571;BMP180;2808;51.240;6.794;2023-06-22T02:52:04;101278.00;;;22.00
5571;BMP180;2808;51.240;6.794;2023-06-22T02:54:31;101281.00;;;22.00
5571;BMP180;2808;51.240;6.794;2023-06-22T02:56:59;101278.00;;;22.00
5571;BMP180;2808;51.240;6.794;2023-06-22T02:59:28;101291.00;;;21.90
5571;BMP180;2808;51.240;6.794;2023-06-22T03:01:56;101282.00;;;21.90
5571;BMP180;2808;51.240;6.794;2023-06-22T03:04:23;101281.00;;;21.90
5571;BMP180;2808;51.240;6.794;2023-06-22T03:06:51;101268.00;;;21.90
5571;BMP180;2808;51.240;6.794;2023-06-22T03:09:20;101266.00;;;21.80
5571;BMP180;2808;51.240;6.794;2023-06-22T03:11:47;101269.00;;;21.80
5571;BMP180;2808;51.240;6.794;2023-06-22T03:14:14;101261.00;;;21.70
5571;BMP180;2808;51.240;6.794;2023-06-22T03:16:42;101269.00;;;21.70
5571;BMP180;2808;51.240;6.794;2023-06-22T03:19:10;101265.00;;;21.60
5571;BMP180;2808;51.240;6.794;2023-06-22T03:21:38;101255.00;;;21.50
5571;BMP180;2808;51.240;6.794;2023-06-22T03:24:06;101252.00;;;21.50
5571;BMP180;2808;51.240;6.794;2023-06-22T03:26:35;101250.00;;;21.50
5571;BMP180;2808;51.240;6.794;2023-06-22T03:29:03;101255.00;;;21.50
5571;BMP180;2808;51.240;6.794;2023-06-22T03:31:30;101250.00;;;21.50
5571;BMP180;2808;51.240;6.794;2023-06-22T03:33:58;101250.00;;;21.50
5571;BMP180;2808;51.240;6.794;2023-06-22T03:36:25;101243.00;;;21.50
5571;BMP180;2808;51.240;6.794;2023-06-22T03:38:53;101239.00;;;21.50
5571;BMP180;2808;51.240;6.794;2023-06-22T03:41:20;101233.00;;;21.60
5571;BMP180;2808;51.240;6.794;2023-06-22T03:43:49;101230.00;;;21.50
5571;BMP180;2808;51.240;6.794;2023-06-22T03:46:16;101223.00;;;21.50
5571;BMP180;2808;51.240;6.794;2023-06-22T03:48:44;101227.00;;;21.60
5571;BMP180;2808;51.240;6.794;2023-06-22T03:51:13;101230.00;;;21.60
5571;BMP180;2808;51.240;6.794;2023-06-22T03:53:41;101239.00;;;21.70
5571;BMP180;2808;51.240;6.794;2023-06-22T03:56:09;101226.00;;;21.60
5571;BMP180;2808;51.240;6.794;2023-06-22T03:58:37;101227.00;;;21.70
5571;BMP180;2808;51.240;6.794;2023-06-22T04:01:10;101231.00;;;21.60
5571;BMP180;2808;51.240;6.794;2023-06-22T04:03:38;101232.00;;;21.70
5571;BMP180;2808;51.240;6.794;2023-06-22T04:06:05;101243.00;;;21.60
5571;BMP180;2808;51.240;6.794;2023-06-22T04:08:33;101245.00;;;21.70
5571;BMP180;2808;51.240;6.794;2023-06-22T04:11:00;101249.00;;;21.70
5571;BMP180;2808;51.240;6.794;2023-06-22T04:13:28;101240.00;;;21.70
5571;BMP180;2808;51.240;6.794;2023-06-22T04:15:55;101239.00;;;21.70
5571;BMP180;2808;51.240;6.794;2023-06-22T04:18:24;101238.00;;;21.70
5571;BMP180;2808;51.240;6.794;2023-06-22T04:20:52;101232.00;;;21.70
5571;BMP180;2808;51.240;6.794;2023-06-22T04:23:19;101237.00;;;21.60
5571;BMP180;2808;51.240;6.794;2023-06-22T04:25:47;101226.00;;;21.60
5571;BMP180;2808;51.240;6.794;2023-06-22T04:28:14;101233.00;;;21.60
5571;BMP180;2808;51.240;6.794;2023-06-22T04:30:42;101232.00;;;21.60
5571;BMP180;2808;51.240;6.794;2023-06-22T04:33:13;101230.00;;;21.60
5571;BMP180;2808;51.240;6.794;2023-06-22T04:35:42;101231.00;;;21.50
5571;BMP180;2808;51.240;6.794;2023-06-22T04:38:12;101227.00;;;21.50
5571;BMP180;2808;51.240;6.794;2023-06-22T04:40:40;101228.00;;;21.50
5571;BMP180;2808;51.240;6.794;2023-06-22T04:43:07;101227.00;;;21.60
5571;BMP180;2808;51.240;6.794;2023-06-22T04:45:36;101226.00;;;21.60
5571;BMP180;2808;51.240;6.794;2023-06-22T04:48:04;101233.00;;;21.60
5571;BMP180;2808;51.240;6.794;2023-06-22T04:50:32;101238.00;;;21.70
5571;BMP180;2808;51.240;6.794;2023-06-22T04:53:01;101235.00;;;21.70
5571;BMP180;2808;51.240;6.794;2023-06-22T04:55:33;101244.00;;;21.70
5571;BMP180;2808;51.240;6.794;2023-06-22T04:58:03;101243.00;;;21.70
5571;BMP180;2808;51.240;6.794;2023-06-22T05:00:32;101236.00;;;21.70
5571;BMP180;2808;51.240;6.794;2023-06-22T05:03:02;101242.00;;;21.80
5571;BMP180;2808;51.240;6.794;2023-06-22T05:05:37;101240.00;;;21.80
5571;BMP180;2808;51.240;6.794;2023-06-22T05:08:06;101236.00;;;21.90
5571;BMP180;2808;51.240;6.794;2023-06-22T05:10:33;101235.00;;;21.90
5571;BMP180;2808;51.240;6.794;2023-06-22T05:13:00;101231.00;;;22.00
5571;BMP180;2808;51.240;6.794;2023-06-22T05:15:28;101225.00;;;22.00
5571;BMP180;2808;51.240;6.794;2023-06-22T05:17:59;101228.00;;;22.00
5571;BMP180;2808;51.240;6.794;2023-06-22T05:20:31;101240.00;;;22.00
5571;BMP180;2808;51.240;6.794;2023-06-22T05:22:59;101236.00;;;22.00
5571;BMP180;2808;51.240;6.794;2023-06-22T05:25:28;101240.00;;;22.00
5571;BMP180;2808;51.240;6.794;2023-06-22T05:27:58;101245.00;;;22.00
5571;BMP180;2808;51.240;6.794;2023-06-22T05:30:26;101242.00;;;22.10
5571;BMP180;2808;51.240;6.794;2023-06-22T05:32:54;101242.00;;;22.20
5571;BMP180;2808;51.240;6.794;2023-06-22T05:35:22;101244.00;;;22.30
5571;BMP180;2808;51.240;6.794;2023-06-22T05:37:49;101248.00;;;22.30
5571;BMP180;2808;51.240;6.794;2023-06-22T05:40:17;101244.00;;;22.30
5571;BMP180;2808;51.240;6.794;2023-06-22T05:42:46;101251.00;;;22.30
5571;BMP180;2808;51.240;6.794;2023-06-22T05:45:14;101254.00;;;22.20
5571;BMP180;2808;51.240;6.794;2023-06-22T05:47:42;101244.00;;;22.20
5571;BMP180;2808;51.240;6.794;2023-06-22T05:50:11;101246.00;;;22.20
5571;BMP180;2808;51.240;6.794;2023-06-22T05:52:38;101241.00;;;22.10
5571;BMP180;2808;51.240;6.794;2023-06-22T05:55:06;101233.00;;;22.10
5571;BMP180;2808;51.240;6.794;2023-06-22T05:57:34;101236.00;;;22.10
5571;BMP180;2808;51.240;6.794;2023-06-22T06:00:04;101241.00;;;22.10
5571;BMP180;2808;51.240;6.794;2023-06-22T06:02:37;101236.00;;;22.00
5571;BMP180;2808;51.240;6.794;2023-06-22T06:05:10;101237.00;;;22.00
5571;BMP180;2808;51.240;6.794;2023-06-22T06:07:39;101234.00;;;22.00
5571;BMP180;2808;51.240;6.794;2023-06-22T06:10:08;101238.00;;;22.10
5571;BMP180;2808;51.240;6.794;2023-06-22T06:12:35;101232.00;;;22.10
5571;BMP180;2808;51.240;6.794;2023-06-22T06:15:07;101237.00;;;22.10
5571;BMP180;2808;51.240;6.794;2023-06-22T06:17:52;101242.00;;;22.10
5571;BMP180;2808;51.240;6.794;2023-06-22T06:20:22;101248.00;;;22.10
5571;BMP180;2808;51.240;6.794;2023-06-22T06:22:49;101248.00;;;22.10
5571;BMP180;2808;51.240;6.794;2023-06-22T06:25:17;101250.00;;;22.10
5571;BMP180;2808;51.240;6.794;2023-06-22T06:27:46;101247.00;;;22.10
5571;BMP180;2808;51.240;6.794;2023-06-22T06:30:17;101243.00;;;22.20
5571;BMP180;2808;51.240;6.794;2023-06-22T06:32:46;101244.00;;;22.20
5571;BMP180;2808;51.240;6.794;2023-06-22T06:35:14;101237.00;;;22.20
5571;BMP180;2808;51.240;6.794;2023-06-22T06:37:43;101239.00;;;22.30
5571;BMP180;2808;51.240;6.794;2023-06-22T06:40:12;101241.00;;;22.30
5571;BMP180;2808;51.240;6.794;2023-06-22T06:42:41;101247.00;;;22.30
5571;BMP180;2808;51.240;6.794;2023-06-22T06:45:11;101243.00;;;22.40
5571;BMP180;2808;51.240;6.794;2023-06-22T06:47:40;101240.00;;;22.50
5571;BMP180;2808;51.240;6.794;2023-06-22T06:50:09;101241.00;;;22.50
5571;BMP180;2808;51.240;6.794;2023-06-22T06:52:37;101253.00;;;22.40
5571;BMP180;2808;51.240;6.794;2023-06-22T06:55:06;101244.00;;;22.40
5571;BMP180;2808;51.240;6.794;2023-06-22T06:57:36;101243.00;;;22.30
5571;BMP180;2808;51.240;6.794;2023-06-22T07:00:06;101248.00;;;22.40
5571;BMP180;2808;51.240;6.794;2023-06-22T07:02:39;101251.00;;;22.30
5571;BMP180;2808;51.240;6.794;2023-06-22T07:05:07;101240.00;;;22.20
5571;BMP180;2808;51.240;6.794;2023-06-22T07:07:35;101255.00;;;22.20
5571;BMP180;2808;51.240;6.794;2023-06-22T07:10:03;101256.00;;;22.00
5571;BMP180;2808;51.240;6.794;2023-06-22T07:12:33;101247.00;;;21.90
5571;BMP180;2808;51.240;6.794;2023-06-22T07:15:05;101235.00;;;21.80
5571;BMP180;2808;51.240;6.794;2023-06-22T07:17:34;101229.00;;;21.80
5571;BMP180;2808;51.240;6.794;2023-06-22T07:20:04;101211.00;;;21.80
5571;BMP180;2808;51.240;6.794;2023-06-22T07:22:36;101218.00;;;21.80
5571;BMP180;2808;51.240;6.794;2023-06-22T07:25:06;101227.00;;;21.80
5571;BMP180;2808;51.240;6.794;2023-06-22T07:27:46;101241.00;;;21.70
5571;BMP180;2808;51.240;6.794;2023-06-22T07:30:14;101239.00;;;21.70
5571;BMP180;2808;51.240;6.794;2023-06-22T07:32:42;101237.00;;;21.70
5571;BMP180;2808;51.240;6.794;2023-06-22T07:35:11;101221.00;;;21.70
5571;BMP180;2808;51.240;6.794;2023-06-22T07:37:38;101229.00;;;21.70
5571;BMP180;2808;51.240;6.794;2023-06-22T07:40:07;101225.00;;;21.70
5571;BMP180;2808;51.240;6.794;2023-06-22T07:42:36;101222.00;;;21.50
5571;BMP180;2808;51.240;6.794;2023-06-22T07:45:04;101199.00;;;21.50
5571;BMP180;2808;51.240;6.794;2023-06-22T07:47:34;101205.00;;;21.50
5571;BMP180;2808;51.240;6.794;2023-06-22T07:50:11;101205.00;;;21.50
5571;BMP180;2808;51.240;6.794;2023-06-22T07:52:39;101194.00;;;21.70
5571;BMP180;2808;51.240;6.794;2023-06-22T07:55:07;101189.00;;;22.20
5571;BMP180;2808;51.240;6.794;2023-06-22T07:57:35;101183.00;;;22.60
5571;BMP180;2808;51.240;6.794;2023-06-22T08:00:04;101183.00;;;23.00
5571;BMP180;2808;51.240;6.794;2023-06-22T08:02:38;101171.00;;;23.60
5571;BMP180;2808;51.240;6.794;2023-06-22T08:05:06;101152.00;;;24.10
5571;BMP180;2808;51.240;6.794;2023-06-22T08:07:36;101146.00;;;24.60
5571;BMP180;2808;51.240;6.794;2023-06-22T08:10:04;101147.00;;;25.20
5571;BMP180;2808;51.240;6.794;2023-06-22T08:12:32;101149.00;;;25.60
5571;BMP180;2808;51.240;6.794;2023-06-22T08:14:59;101141.00;;;25.60
5571;BMP180;2808;51.240;6.794;2023-06-22T08:17:27;101135.00;;;25.90
5571;BMP180;2808;51.240;6.794;2023-06-22T08:19:54;101133.00;;;26.20
5571;BMP180;2808;51.240;6.794;2023-06-22T08:22:22;101128.00;;;26.80
5571;BMP180;2808;51.240;6.794;2023-06-22T08:24:51;101126.00;;;27.30
5571;BMP180;2808;51.240;6.794;2023-06-22T08:27:21;101131.00;;;28.00
5571;BMP180;2808;51.240;6.794;2023-06-22T08:29:50;101121.00;;;28.20
5571;BMP180;2808;51.240;6.794;2023-06-22T08:32:22;101122.00;;;28.60
5571;BMP180;2808;51.240;6.794;2023-06-22T08:34:50;101126.00;;;28.80
5571;BMP180;2808;51.240;6.794;2023-06-22T08:37:18;101124.00;;;28.30
5571;BMP180;2808;51.240;6.794;2023-06-22T08:54:17;101107.00;;;28.00
5571;BMP180;2808;51.240;6.794;2023-06-22T08:56:45;101105.00;;;28.00
5571;BMP180;2808;51.240;6.794;2023-06-22T08:59:14;101093.00;;;27.80
5571;BMP180;2808;51.240;6.794;2023-06-22T09:01:42;101096.00;;;27.90
5571;BMP180;2808;51.240;6.794;2023-06-22T09:04:17;101082.00;;;27.50
5571;BMP180;2808;51.240;6.794;2023-06-22T09:06:50;101085.00;;;27.40
5571;BMP180;2808;51.240;6.794;2023-06-22T09:09:20;101080.00;;;27.80
5571;BMP180;2808;51.240;6.794;2023-06-22T09:11:49;101091.00;;;27.80
5571;BMP180;2808;51.240;6.794;2023-06-22T09:14:19;101085.00;;;27.60
5571;BMP180;2808;51.240;6.794;2023-06-22T09:16:46;101080.00;;;27.60
5571;BMP180;2808;51.240;6.794;2023-06-22T09:19:14;101079.00;;;27.80
5571;BMP180;2808;51.240;6.794;2023-06-22T09:21:41;101087.00;;;28.00
5571;BMP180;2808;51.240;6.794;2023-06-22T09:24:09;101101.00;;;28.30
5571;BMP180;2808;51.240;6.794;2023-06-22T09:26:38;101092.00;;;28.30
5571;BMP180;2808;51.240;6.794;2023-06-22T09:29:05;101104.00;;;28.20
5571;BMP180;2808;51.240;6.794;2023-06-22T09:31:33;101091.00;;;27.90
5571;BMP180;2808;51.240;6.794;2023-06-22T09:34:00;101073.00;;;27.80
5571;BMP180;2808;51.240;6.794;2023-06-22T09:36:28;101071.00;;;27.60
5571;BMP180;2808;51.240;6.794;2023-06-22T09:38:55;101057.00;;;27.60
5571;BMP180;2808;51.240;6.794;2023-06-22T09:41:24;101051.00;;;27.80
5571;BMP180;2808;51.240;6.794;2023-06-22T09:43:54;101047.00;;;28.10
5571;BMP180;2808;51.240;6.794;2023-06-22T09:46:25;101049.00;;;28.10
5571;BMP180;2808;51.240;6.794;2023-06-22T09:48:56;101040.00;;;27.90
5571;BMP180;2808;51.240;6.794;2023-06-22T09:51:24;101046.00;;;27.90
5571;BMP180;2808;51.240;6.794;2023-06-22T09:53:52;101039.00;;;28.00
5571;BMP180;2808;51.240;6.794;2023-06-22T09:56:20;101034.00;;;28.40
5571;BMP180;2808;51.240;6.794;2023-06-22T09:58:48;101041.00;;;28.50
5571;BMP180;2808;51.240;6.794;2023-06-22T10:01:20;101037.00;;;28.40
5571;BMP180;2808;51.240;6.794;2023-06-22T10:03:48;101041.00;;;28.30
5571;BMP180;2808;51.240;6.794;2023-06-22T10:06:20;101041.00;;;28.10
5571;BMP180;2808;51.240;6.794;2023-06-22T10:08:48;101038.00;;;28.00
5571;BMP180;2808;51.240;6.794;2023-06-22T10:11:17;101037.00;;;27.90
5571;BMP180;2808;51.240;6.794;2023-06-22T10:13:44;101045.00;;;28.10
5571;BMP180;2808;51.240;6.794;2023-06-22T10:16:12;101034.00;;;28.10
5571;BMP180;2808;51.240;6.794;2023-06-22T10:18:41;101044.00;;;28.20
5571;BMP180;2808;51.240;6.794;2023-06-22T10:21:08;101041.00;;;28.30
5571;BMP180;2808;51.240;6.794;2023-06-22T10:23:35;101046.00;;;28.10
5571;BMP180;2808;51.240;6.794;2023-06-22T10:26:03;101046.00;;;28.10
5571;BMP180;2808;51.240;6.794;2023-06-22T10:28:30;101045.00;;;27.80
5571;BMP180;2808;51.240;6.794;2023-06-22T10:30:58;101054.00;;;27.60
5571;BMP180;2808;51.240;6.794;2023-06-22T10:33:25;101057.00;;;27.50
5571;BMP180;2808;51.240;6.794;2023-06-22T10:36:24;101065.00;;;27.20
5571;BMP180;2808;51.240;6.794;2023-06-22T10:38:52;101070.00;;;27.10
5571;BMP180;2808;51.240;6.794;2023-06-22T10:41:21;101074.00;;;26.90
5571;BMP180;2808;51.240;6.794;2023-06-22T10:43:52;101080.00;;;26.80
5571;BMP180;2808;51.240;6.794;2023-06-22T10:46:19;101084.00;;;26.70
5571;BMP180;2808;51.240;6.794;2023-06-22T10:48:47;101088.00;;;26.60
5571;BMP180;2808;51.240;6.794;2023-06-22T10:51:16;101099.00;;;26.50
5571;BMP180;2808;51.240;6.794;2023-06-22T10:53:43;101107.00;;;26.40
5571;BMP180;2808;51.240;6.794;2023-06-22T10:56:17;101116.00;;;26.30
5571;BMP180;2808;51.240;6.794;2023-06-22T10:58:45;101125.00;;;26.10
5571;BMP180;2808;51.240;6.794;2023-06-22T11:01:13;101139.00;;;26.00
5571;BMP180;2808;51.240;6.794;2023-06-22T11:03:50;101131.00;;;25.90
5571;BMP180;2808;51.240;6.794;2023-06-22T11:09:45;101142.00;;;25.40
5571;BMP180;2808;51.240;6.794;2023-06-22T11:12:26;101151.00;;;25.20
5571;BMP180;2808;51.240;6.794;2023-06-22T11:21:58;101141.00;;;24.70
5571;BMP180;2808;51.240;6.794;2023-06-22T11:24:31;101133.00;;;24.50
5571;BMP180;2808;51.240;6.794;2023-06-22T11:27:00;101125.00;;;24.40
5571;BMP180;2808;51.240;6.794;2023-06-22T11:29:27;101123.00;;;24.30
5571;BMP180;2808;51.240;6.794;2023-06-22T11:31:55;101112.00;;;24.20
5571;BMP180;2808;51.240;6.794;2023-06-22T11:34:23;101100.00;;;24.00
5571;BMP180;2808;51.240;6.794;2023-06-22T11:36:50;101087.00;;;23.90
5571;BMP180;2808;51.240;6.794;2023-06-22T11:39:18;101070.00;;;23.80
5571;BMP180;2808;51.240;6.794;2023-06-22T11:41:46;101065.00;;;23.60
5571;BMP180;2808;51.240;6.794;2023-06-22T11:44:14;101052.00;;;23.40
5571;BMP180;2808;51.240;6.794;2023-06-22T11:46:42;101038.00;;;23.40
5571;BMP180;2808;51.240;6.794;2023-06-22T11:49:09;101020.00;;;23.30
5571;BMP180;2808;51.240;6.794;2023-06-22T11:51:37;101025.00;;;23.30
5571;BMP180;2808;51.240;6.794;2023-06-22T11:54:04;101005.00;;;23.10
5571;BMP180;2808;51.240;6.794;2023-06-22T11:56:35;100995.00;;;23.10
5571;BMP180;2808;51.240;6.794;2023-06-22T11:59:03;100975.00;;;23.00
5571;BMP180;2808;51.240;6.794;2023-06-22T12:01:32;100954.00;;;22.80
5571;BMP180;2808;51.240;6.794;2023-06-22T12:04:00;100932.00;;;22.80
5571;BMP180;2808;51.240;6.794;2023-06-22T12:06:31;100936.00;;;22.80
5571;BMP180;2808;51.240;6.794;2023-06-22T12:08:59;100934.00;;;22.90
5571;BMP180;2808;51.240;6.794;2023-06-22T12:11:26;100937.00;;;23.00
5571;BMP180;2808;51.240;6.794;2023-06-22T12:13:54;100952.00;;;23.30
5571;BMP180;2808;51.240;6.794;2023-06-22T12:16:21;100952.00;;;23.40
5571;BMP180;2808;51.240;6.794;2023-06-22T12:19:04;100951.00;;;23.50
5571;BMP180;2808;51.240;6.794;2023-06-22T12:21:32;100956.00;;;23.60
5571;BMP180;2808;51.240;6.794;2023-06-22T12:24:00;100952.00;;;23.60
5571;BMP180;2808;51.240;6.794;2023-06-22T12:26:30;100956.00;;;23.70
5571;BMP180;2808;51.240;6.794;2023-06-22T12:28:57;100951.00;;;23.70
5571;BMP180;2808;51.240;6.794;2023-06-22T12:31:28;100932.00;;;23.60
5571;BMP180;2808;51.240;6.794;2023-06-22T12:33:56;100935.00;;;23.30
5571;BMP180;2808;51.240;6.794;2023-06-22T12:36:24;100925.00;;;23.10
5571;BMP180;2808;51.240;6.794;2023-06-22T12:38:51;100909.00;;;23.00
5571;BMP180;2808;51.240;6.794;2023-06-22T12:45:09;100917.00;;;23.20
5571;BMP180;2808;51.240;6.794;2023-06-22T12:47:37;100924.00;;;23.30
5571;BMP180;2808;51.240;6.794;2023-06-22T12:50:07;100921.00;;;23.50
5571;BMP180;2808;51.240;6.794;2023-06-22T12:52:37;100904.00;;;23.70
5571;BMP180;2808;51.240;6.794;2023-06-22T12:55:08;100898.00;;;23.80
5571;BMP180;2808;51.240;6.794;2023-06-22T12:57:35;100902.00;;;23.90
5571;BMP180;2808;51.240;6.794;2023-06-22T13:00:10;100900.00;;;24.00
5571;BMP180;2808;51.240;6.794;2023-06-22T13:02:40;100908.00;;;24.00
5571;BMP180;2808;51.240;6.794;2023-06-22T13:05:12;100905.00;;;24.00
5571;BMP180;2808;51.240;6.794;2023-06-22T13:07:45;100913.00;;;24.00
5571;BMP180;2808;51.240;6.794;2023-06-22T13:17:11;100891.00;;;24.00
5571;BMP180;2808;51.240;6.794;2023-06-22T13:19:38;100888.00;;;23.90
5571;BMP180;2808;51.240;6.794;2023-06-22T13:22:27;100890.00;;;24.00
5571;BMP180;2808;51.240;6.794;2023-06-22T13:25:33;100882.00;;;24.10
5571;BMP180;2808;51.240;6.794;2023-06-22T13:28:04;100878.00;;;24.00
5571;BMP180;2808;51.240;6.794;2023-06-22T13:30:32;100865.00;;;24.10
5571;BMP180;2808;51.240;6.794;2023-06-22T13:33:00;100863.00;;;24.20
5571;BMP180;2808;51.240;6.794;2023-06-22T13:35:30;100861.00;;;24.30
5571;BMP180;2808;51.240;6.794;2023-06-22T13:38:05;100860.00;;;24.50
5571;BMP180;2808;51.240;6.794;2023-06-22T13:40:33;100860.00;;;24.70
5571;BMP180;2808;51.240;6.794;2023-06-22T13:43:05;100847.00;;;24.50
5571;BMP180;2808;51.240;6.794;2023-06-22T13:45:50;100838.00;;;24.50
5571;BMP180;2808;51.240;6.794;2023-06-22T13:48:18;100832.00;;;24.50
5571;BMP180;2808;51.240;6.794;2023-06-22T13:51:21;100820.00;;;24.60
5571;BMP180;2808;51.240;6.794;2023-06-22T13:54:25;100823.00;;;24.60
5571;BMP180;2808;51.240;6.794;2023-06-22T13:57:07;100827.00;;;24.40
5571;BMP180;2808;51.240;6.794;2023-06-22T13:59:34;100822.00;;;24.40
5571;BMP180;2808;51.240;6.794;2023-06-22T14:02:06;100824.00;;;24.20
5571;BMP180;2808;51.240;6.794;2023-06-22T14:04:36;100807.00;;;24.10
5571;BMP180;2808;51.240;6.794;2023-06-22T14:07:14;100793.00;;;24.00
5571;BMP180;2808;51.240;6.794;2023-06-22T14:09:53;100798.00;;;23.90
5571;BMP180;2808;51.240;6.794;2023-06-22T14:12:21;100795.00;;;24.00
5571;BMP180;2808;51.240;6.794;2023-06-22T14:14:48;100787.00;;;23.90
5571;BMP180;2808;51.240;6.794;2023-06-22T14:17:20;100773.00;;;23.70
5571;BMP180;2808;51.240;6.794;2023-06-22T14:19:56;100769.00;;;23.70
5571;BMP180;2808;51.240;6.794;2023-06-22T14:22:29;100764.00;;;23.70
5571;BMP180;2808;51.240;6.794;2023-06-22T14:25:09;100782.00;;;23.90
5571;BMP180;2808;51.240;6.794;2023-06-22T14:27:37;100773.00;;;24.00
5571;BMP180;2808;51.240;6.794;2023-06-22T14:30:05;100766.00;;;23.80
5571;BMP180;2808;51.240;6.794;2023-06-22T14:32:36;100765.00;;;23.70
5571;BMP180;2808;51.240;6.794;2023-06-22T14:35:07;100753.00;;;23.60
5571;BMP180;2808;51.240;6.794;2023-06-22T14:37:34;100755.00;;;23.30
5571;BMP180;2808;51.240;6.794;2023-06-22T14:40:02;100737.00;;;23.20
5571;BMP180;2808;51.240;6.794;2023-06-22T14:42:31;100730.00;;;23.20
5571;BMP180;2808;51.240;6.794;2023-06-22T14:44:58;100722.00;;;23.20
5571;BMP180;2808;51.240;6.794;2023-06-22T14:47:26;100710.00;;;23.30
5571;BMP180;2808;51.240;6.794;2023-06-22T14:49:57;100699.00;;;23.30
5571;BMP180;2808;51.240;6.794;2023-06-22T14:53:12;100693.00;;;23.40
5571;BMP180;2808;51.240;6.794;2023-06-22T15:02:17;100659.00;;;23.10
5571;BMP180;2808;51.240;6.794;2023-06-22T15:04:45;100647.00;;;23.10
5571;BMP180;2808;51.240;6.794;2023-06-22T15:07:12;100649.00;;;23.10
5571;BMP180;2808;51.240;6.794;2023-06-22T15:09:40;100649.00;;;23.10
5571;BMP180;2808;51.240;6.794;2023-06-22T15:12:09;100643.00;;;23.00
5571;BMP180;2808;51.240;6.794;2023-06-22T15:14:52;100626.00;;;23.20
5571;BMP180;2808;51.240;6.794;2023-06-22T15:17:21;100629.00;;;23.30
5571;BMP180;2808;51.240;6.794;2023-06-22T16:15:24;100587.00;;;21.90